createdAt,value
2023-04-25T00:00:29.429Z,7.80
2023-04-25T00:03:00.464Z,8.00
2023-04-25T00:05:30.568Z,8.10
2023-04-25T00:07:59.694Z,8.10
2023-04-25T00:10:27.850Z,8.20
2023-04-25T00:12:55.913Z,8.20
2023-04-25T00:15:25.289Z,8.80
2023-04-25T00:17:53.945Z,8.10
2023-04-25T00:20:24.444Z,8.30
2023-04-25T00:22:53.765Z,7.80
2023-04-25T00:25:22.044Z,7.80
2023-04-25T00:27:50.102Z,7.80
2023-04-25T00:30:18.240Z,7.90
2023-04-25T00:32:47.023Z,7.80
2023-04-25T00:35:15.214Z,7.90
2023-04-25T00:37:44.685Z,7.90
2023-04-25T00:40:13.080Z,8.30
2023-04-25T00:42:42.390Z,8.10
2023-04-25T00:45:14.759Z,8.10
2023-04-25T00:47:43.153Z,8.20
2023-04-25T00:50:14.070Z,8.00
2023-04-25T00:52:45.691Z,8.00
2023-04-25T00:55:14.873Z,8.00
2023-04-25T00:57:43.215Z,8.20
2023-04-25T01:00:12.890Z,8.00
2023-04-25T01:02:41.845Z,8.00
2023-04-25T01:05:10.980Z,8.00
2023-04-25T01:07:39.226Z,8.00
2023-04-25T01:10:10.394Z,7.50
2023-04-25T01:12:38.480Z,7.90
2023-04-25T01:15:07.498Z,7.90
2023-04-25T01:17:37.007Z,8.10
2023-04-25T01:20:06.626Z,7.80
2023-04-25T01:22:36.622Z,8.10
2023-04-25T01:25:05.101Z,8.60
2023-04-25T01:27:33.518Z,8.00
2023-04-25T01:30:02.229Z,8.50
2023-04-25T01:32:32.442Z,8.10
2023-04-25T01:35:00.546Z,8.60
2023-04-25T01:37:28.712Z,8.20
2023-04-25T01:39:58.640Z,8.60
2023-04-25T01:42:26.720Z,8.30
2023-04-25T01:44:54.962Z,8.20
2023-04-25T01:49:51.653Z,8.20
2023-04-25T01:52:19.718Z,8.30
2023-04-25T01:54:48.229Z,8.00
2023-04-25T01:57:17.633Z,7.90
2023-04-25T01:59:46.585Z,8.40
2023-04-25T02:02:14.779Z,8.10
2023-04-25T02:04:43.071Z,8.10
2023-04-25T02:07:11.362Z,8.20
2023-04-25T02:09:39.358Z,8.10
2023-04-25T02:12:07.819Z,8.10
2023-04-25T02:14:37.195Z,8.10
2023-04-25T02:17:06.734Z,8.40
2023-04-25T02:19:34.920Z,8.20
2023-04-25T02:22:02.983Z,8.20
2023-04-25T02:24:31.162Z,8.10
2023-04-25T02:26:59.160Z,8.10
2023-04-25T02:29:27.272Z,8.10
2023-04-25T02:31:57.021Z,8.00
2023-04-25T02:34:25.170Z,7.90
2023-04-25T02:36:53.264Z,7.70
2023-04-25T02:39:23.140Z,7.20
2023-04-25T02:41:51.192Z,7.00
2023-04-25T02:44:19.232Z,7.20
2023-04-25T02:46:47.320Z,7.40
2023-04-25T02:49:16.757Z,7.20
2023-04-25T02:51:44.837Z,8.30
2023-04-25T02:54:12.972Z,7.20
2023-04-25T02:56:41.227Z,7.20
2023-04-25T02:59:09.260Z,7.30
2023-04-25T03:01:37.292Z,7.30
2023-04-25T03:04:05.488Z,7.40
2023-04-25T03:06:34.954Z,7.30
2023-04-25T03:09:03.063Z,7.90
2023-04-25T03:11:31.134Z,7.20
2023-04-25T03:13:59.266Z,7.20
2023-04-25T03:16:27.361Z,7.20
2023-04-25T03:18:55.451Z,7.50
2023-04-25T03:21:23.518Z,7.70
2023-04-25T03:23:53.068Z,7.40
2023-04-25T03:26:21.601Z,7.40
2023-04-25T03:28:49.771Z,7.30
2023-04-25T03:31:17.897Z,7.70
2023-04-25T03:33:46.081Z,7.30
2023-04-25T03:36:14.191Z,7.40
2023-04-25T03:38:42.871Z,7.40
2023-04-25T03:41:12.395Z,7.40
2023-04-25T03:43:40.429Z,7.30
2023-04-25T03:46:08.627Z,8.10
2023-04-25T03:48:37.097Z,7.90
2023-04-25T03:51:05.480Z,7.40
2023-04-25T03:53:33.550Z,7.20
2023-04-25T03:56:01.659Z,7.10
2023-04-25T03:58:31.093Z,7.90
2023-04-25T04:00:59.141Z,7.10
2023-04-25T04:03:27.439Z,7.20
2023-04-25T04:05:55.719Z,7.30
2023-04-25T04:08:23.763Z,7.10
2023-04-25T04:10:51.829Z,7.40
2023-04-25T04:13:19.838Z,6.80
2023-04-25T04:15:49.366Z,6.60
2023-04-25T04:18:17.424Z,6.50
2023-04-25T04:20:45.529Z,6.60
2023-04-25T04:23:14.074Z,6.60
2023-04-25T04:25:42.841Z,6.70
2023-04-25T04:28:12.024Z,6.80
2023-04-25T04:30:40.157Z,6.80
2023-04-25T04:33:09.733Z,6.80
2023-04-25T04:35:37.843Z,6.70
2023-04-25T04:38:05.935Z,6.70
2023-04-25T04:40:33.980Z,6.40
2023-04-25T04:43:02.029Z,6.40
2023-04-25T04:45:30.095Z,6.30
2023-04-25T04:47:58.163Z,6.30
2023-04-25T04:50:28.596Z,6.10
2023-04-25T04:52:56.729Z,6.10
2023-04-25T04:55:24.754Z,6.10
2023-04-25T04:57:52.785Z,6.10
2023-04-25T05:00:21.785Z,6.50
2023-04-25T05:02:50.214Z,6.40
2023-04-25T05:05:18.448Z,6.40
2023-04-25T05:07:47.866Z,6.40
2023-04-25T05:10:16.288Z,6.40
2023-04-25T05:12:44.359Z,6.80
2023-04-25T05:15:12.658Z,7.70
2023-04-25T05:17:41.142Z,6.90
2023-04-25T05:20:10.896Z,7.10
2023-04-25T05:22:38.990Z,7.40
2023-04-25T05:25:09.206Z,7.80
2023-04-25T05:27:37.453Z,7.40
2023-04-25T05:30:07.044Z,7.50
2023-04-25T05:32:35.178Z,7.50
2023-04-25T05:35:03.873Z,7.30
2023-04-25T05:40:01.953Z,7.30
2023-04-25T05:42:31.346Z,7.40
2023-04-25T05:44:59.442Z,8.00
2023-04-25T05:47:27.554Z,7.40
2023-04-25T05:49:55.632Z,7.90
2023-04-25T05:52:23.688Z,7.60
2023-04-25T05:54:51.716Z,7.60
2023-04-25T05:57:24.499Z,8.00
2023-04-25T05:59:54.588Z,8.40
2023-04-25T06:02:23.508Z,8.60
2023-04-25T06:04:52.837Z,8.10
2023-04-25T06:07:21.276Z,8.80
2023-04-25T06:09:49.327Z,8.90
2023-04-25T06:12:17.523Z,8.40
2023-04-25T06:14:45.566Z,8.60
2023-04-25T06:17:14.973Z,8.70
2023-04-25T06:19:43.073Z,8.80
2023-04-25T06:22:11.121Z,9.60
2023-04-25T06:24:39.123Z,9.60
2023-04-25T06:27:07.216Z,9.10
2023-04-25T06:29:35.315Z,9.70
2023-04-25T06:32:03.407Z,9.20
2023-04-25T06:34:32.830Z,9.10
2023-04-25T06:37:00.902Z,9.10
2023-04-25T06:39:28.957Z,9.20
2023-04-25T06:41:57.069Z,9.10
2023-04-25T06:44:27.191Z,10.00
2023-04-25T06:46:55.231Z,9.40
2023-04-25T06:49:23.625Z,9.10
2023-04-25T06:51:53.102Z,9.00
2023-04-25T06:54:21.614Z,8.90
2023-04-25T06:56:49.875Z,8.90
2023-04-25T06:59:17.978Z,9.00
2023-04-25T07:01:46.411Z,9.00
2023-04-25T07:04:15.063Z,8.90
2023-04-25T07:06:44.224Z,9.20
2023-04-25T07:09:13.944Z,8.90
2023-04-25T07:11:42.041Z,8.80
2023-04-25T07:14:10.166Z,8.90
2023-04-25T07:16:38.255Z,8.80
2023-04-25T07:19:06.637Z,8.70
2023-04-25T07:24:03.420Z,8.60
2023-04-25T07:26:32.867Z,8.50
2023-04-25T07:29:00.952Z,9.10
2023-04-25T07:31:29.808Z,8.50
2023-04-25T07:33:59.427Z,8.80
2023-04-25T07:36:29.370Z,8.20
2023-04-25T07:41:25.825Z,8.20
2023-04-25T07:43:55.230Z,8.20
2023-04-25T07:46:23.250Z,8.80
2023-04-25T07:51:20.900Z,8.20
2023-04-25T07:53:50.546Z,8.20
2023-04-25T07:56:18.990Z,8.80
2023-04-25T08:01:17.569Z,8.30
2023-04-25T08:03:45.857Z,8.30
2023-04-25T08:06:14.161Z,8.30
2023-04-25T08:11:10.584Z,8.10
2023-04-25T08:13:38.630Z,8.10
2023-04-25T08:16:06.936Z,8.10
2023-04-25T08:18:36.368Z,8.00
2023-04-25T08:21:04.859Z,8.00
2023-04-25T08:23:32.912Z,8.10
2023-04-25T08:26:00.992Z,7.80
2023-04-25T08:28:30.153Z,7.70
2023-04-25T08:30:58.294Z,7.60
2023-04-25T08:33:26.514Z,7.50
2023-04-25T08:35:55.940Z,8.00
2023-04-25T08:38:24.044Z,7.60
2023-04-25T08:40:53.392Z,7.70
2023-04-25T08:43:22.232Z,7.80
2023-04-25T08:45:50.444Z,7.80
2023-04-25T08:48:19.508Z,7.80
2023-04-25T08:50:52.700Z,7.60
2023-04-25T08:53:28.461Z,7.60
2023-04-25T08:55:58.162Z,7.40
2023-04-25T08:58:26.439Z,8.00
2023-04-25T09:00:54.835Z,7.60
2023-04-25T09:03:23.305Z,7.00
2023-04-25T09:05:52.178Z,7.10
2023-04-25T09:08:20.331Z,7.00
2023-04-25T09:10:49.745Z,7.20
2023-04-25T09:13:27.378Z,7.20
2023-04-25T09:15:57.124Z,7.90
2023-04-25T09:18:30.233Z,7.50
2023-04-25T09:21:02.985Z,7.10
2023-04-25T09:23:41.572Z,7.60
2023-04-25T09:26:11.174Z,7.70
2023-04-25T09:31:07.951Z,7.20
2023-04-25T09:33:37.337Z,6.90
2023-04-25T09:36:07.175Z,6.80
2023-04-25T09:41:04.135Z,6.70
2023-04-25T09:43:33.545Z,6.60
2023-04-25T09:46:02.126Z,6.60
2023-04-25T09:48:31.090Z,7.00
2023-04-25T09:51:09.649Z,6.60
2023-04-25T09:53:39.490Z,6.60
2023-04-25T09:56:08.884Z,6.60
2023-04-25T09:58:40.711Z,6.30
2023-04-25T10:01:11.106Z,6.80
2023-04-25T10:03:41.675Z,7.00
2023-04-25T10:06:12.079Z,7.00
2023-04-25T10:08:41.219Z,6.20
2023-04-25T10:11:10.540Z,6.50
2023-04-25T10:13:39.966Z,7.10
2023-04-25T10:16:08.066Z,6.90
2023-04-25T10:18:36.282Z,6.10
2023-04-25T10:21:07.384Z,6.60
2023-04-25T10:23:36.517Z,6.60
2023-04-25T10:26:04.620Z,6.20
2023-04-25T10:29:00.127Z,6.60
2023-04-25T10:31:28.399Z,6.50
2023-04-25T10:33:56.787Z,7.10
2023-04-25T10:36:28.172Z,7.00
2023-04-25T10:38:56.398Z,7.10
2023-04-25T10:41:24.769Z,7.10
2023-04-25T10:44:03.356Z,7.40
2023-04-25T10:46:32.229Z,7.10
2023-04-25T10:49:02.059Z,6.60
2023-04-25T10:51:39.990Z,7.00
2023-04-25T10:54:11.878Z,7.10
2023-04-25T10:56:41.659Z,6.90
2023-04-25T10:59:13.649Z,7.40
2023-04-25T11:01:43.122Z,7.20
2023-04-25T11:04:24.698Z,7.90
2023-04-25T11:07:20.046Z,8.10
2023-04-25T11:09:48.402Z,8.20
2023-04-25T11:12:17.366Z,8.00
2023-04-25T11:14:46.776Z,8.40
2023-04-25T11:17:14.889Z,8.20
2023-04-25T11:19:43.014Z,7.30
2023-04-25T11:22:12.742Z,7.90
2023-04-25T11:24:40.834Z,8.20
2023-04-25T11:27:08.989Z,8.10
2023-04-25T11:29:37.549Z,7.90
2023-04-25T11:32:07.265Z,7.90
2023-04-25T11:34:36.347Z,7.90
2023-04-25T11:37:05.119Z,8.40
2023-04-25T11:39:33.270Z,8.10
2023-04-25T11:42:06.004Z,7.90
2023-04-25T11:44:36.638Z,7.80
2023-04-25T11:47:06.039Z,7.80
2023-04-25T11:49:34.358Z,7.60
2023-04-25T11:52:02.418Z,8.00
2023-04-25T11:54:30.562Z,8.10
2023-04-25T11:56:58.782Z,8.00
2023-04-25T11:59:28.823Z,7.80
2023-04-25T12:01:58.697Z,8.30
2023-04-25T12:04:28.442Z,7.80
2023-04-25T12:06:57.852Z,8.10
2023-04-25T12:09:31.264Z,7.90
2023-04-25T12:12:03.702Z,8.20
2023-04-25T12:14:33.508Z,8.30
2023-04-25T12:17:03.174Z,8.70
2023-04-25T12:19:36.755Z,8.80
2023-04-25T12:22:05.738Z,8.40
2023-04-25T12:24:38.984Z,8.70
2023-04-25T12:27:09.243Z,8.30
2023-04-25T12:29:49.467Z,8.70
2023-04-25T12:32:18.744Z,8.30
2023-04-25T12:34:48.252Z,8.30
2023-04-25T12:37:16.709Z,8.70
2023-04-25T12:39:44.954Z,8.70
2023-04-25T12:42:13.820Z,9.40
2023-04-25T12:44:42.267Z,8.40
2023-04-25T12:47:10.995Z,9.00
2023-04-25T12:49:39.219Z,8.90
2023-04-25T12:52:08.625Z,8.90
2023-04-25T12:54:36.707Z,8.90
2023-04-25T12:57:04.943Z,8.60
2023-04-25T12:59:32.986Z,8.70
2023-04-25T13:02:01.061Z,9.20
2023-04-25T13:04:29.411Z,8.90
2023-04-25T13:06:57.685Z,9.10
2023-04-25T13:09:27.155Z,9.70
2023-04-25T13:11:57.227Z,9.70
2023-04-25T13:14:27.260Z,9.50
2023-04-25T13:16:55.617Z,9.40
2023-04-25T13:19:23.885Z,10.00
2023-04-25T13:21:52.136Z,10.20
2023-04-25T13:24:20.220Z,10.30
2023-04-25T13:26:49.673Z,10.30
2023-04-25T13:29:17.726Z,10.90
2023-04-25T13:31:45.773Z,11.30
2023-04-25T13:34:14.167Z,10.90
2023-04-25T13:36:42.373Z,11.40
2023-04-25T13:39:10.507Z,11.30
2023-04-25T13:41:38.594Z,12.20
2023-04-25T13:44:08.513Z,11.90
2023-04-25T13:46:46.221Z,12.00
2023-04-25T14:01:44.885Z,11.70
2023-04-25T14:06:42.456Z,11.70
2023-04-25T14:14:08.219Z,11.80
2023-04-25T14:16:39.971Z,12.50
2023-04-25T14:19:07.991Z,12.40
2023-04-25T14:21:36.167Z,12.80
2023-04-25T14:24:04.455Z,12.80
2023-04-25T14:26:32.546Z,13.20
2023-04-25T14:29:00.594Z,13.30
2023-04-25T14:31:28.732Z,12.90
2023-04-25T14:33:59.664Z,12.80
2023-04-25T14:36:28.448Z,11.80
2023-04-25T14:38:56.512Z,11.80
2023-04-25T14:41:24.586Z,11.70
2023-04-25T14:43:53.872Z,11.40
2023-04-25T14:46:23.158Z,11.20
2023-04-25T14:51:21.163Z,11.20
2023-04-25T14:53:49.651Z,11.40
2023-04-25T14:56:17.827Z,12.00
2023-04-25T15:01:15.061Z,11.90
2023-04-25T15:03:43.817Z,11.80
2023-04-25T15:06:12.098Z,11.00
2023-04-25T15:08:41.560Z,11.30
2023-04-25T15:11:09.619Z,11.30
2023-04-25T15:13:37.725Z,11.70
2023-04-25T15:16:07.122Z,11.60
2023-04-25T15:21:03.684Z,11.40
2023-04-25T15:23:32.108Z,11.50
2023-04-25T15:26:01.518Z,11.50
2023-04-25T15:28:29.599Z,11.90
2023-04-25T15:30:58.452Z,11.70
2023-04-25T15:35:56.007Z,12.70
